sensor_id;sensor_type;location;lat;lon;timestamp;temperature;humidity
19180;DHT22;9722;48.754;8.868;2022-10-31T00:00:43;10.00;99.90
19180;DHT22;9722;48.754;8.868;2022-10-31T00:04:04;10.00;99.90
19180;DHT22;9722;48.754;8.868;2022-10-31T00:07:24;10.00;99.90
19180;DHT22;9722;48.754;8.868;2022-10-31T00:10:45;9.90;99.90
19180;DHT22;9722;48.754;8.868;2022-10-31T00:14:06;9.90;99.90
19180;DHT22;9722;48.754;8.868;2022-10-31T00:17:27;9.90;99.90
19180;DHT22;9722;48.754;8.868;2022-10-31T00:20:47;9.90;99.90
19180;DHT22;9722;48.754;8.868;2022-10-31T00:24:08;9.90;99.90
19180;DHT22;9722;48.754;8.868;2022-10-31T00:27:28;9.90;99.90
19180;DHT22;9722;48.754;8.868;2022-10-31T00:30:49;9.90;99.90
19180;DHT22;9722;48.754;8.868;2022-10-31T00:34:09;9.90;99.90
19180;DHT22;9722;48.754;8.868;2022-10-31T00:37:30;9.90;99.90
19180;DHT22;9722;48.754;8.868;2022-10-31T00:40:50;9.80;99.90
19180;DHT22;9722;48.754;8.868;2022-10-31T00:44:11;9.80;99.90
19180;DHT22;9722;48.754;8.868;2022-10-31T00:47:31;9.80;99.90
19180;DHT22;9722;48.754;8.868;2022-10-31T00:50:52;9.80;99.90
19180;DHT22;9722;48.754;8.868;2022-10-31T00:54:13;9.80;99.90
19180;DHT22;9722;48.754;8.868;2022-10-31T00:57:33;9.70;99.90
19180;DHT22;9722;48.754;8.868;2022-10-31T01:00:54;9.70;99.90
19180;DHT22;9722;48.754;8.868;2022-10-31T01:04:17;9.70;99.90
19180;DHT22;9722;48.754;8.868;2022-10-31T01:07:39;9.60;99.90
19180;DHT22;9722;48.754;8.868;2022-10-31T01:11:11;9.70;99.90
19180;DHT22;9722;48.754;8.868;2022-10-31T01:14:32;9.70;99.90
19180;DHT22;9722;48.754;8.868;2022-10-31T01:17:52;9.60;99.90
19180;DHT22;9722;48.754;8.868;2022-10-31T01:21:22;9.70;99.90
19180;DHT22;9722;48.754;8.868;2022-10-31T01:24:42;9.60;99.90
19180;DHT22;9722;48.754;8.868;2022-10-31T01:28:03;9.60;99.90
19180;DHT22;9722;48.754;8.868;2022-10-31T01:31:26;9.60;99.90
19180;DHT22;9722;48.754;8.868;2022-10-31T01:34:47;9.60;99.90
19180;DHT22;9722;48.754;8.868;2022-10-31T01:38:07;9.60;99.90
19180;DHT22;9722;48.754;8.868;2022-10-31T01:41:31;9.60;99.90
19180;DHT22;9722;48.754;8.868;2022-10-31T01:44:58;9.60;99.90
19180;DHT22;9722;48.754;8.868;2022-10-31T01:48:21;9.60;99.90
19180;DHT22;9722;48.754;8.868;2022-10-31T01:52:11;9.50;99.90
19180;DHT22;9722;48.754;8.868;2022-10-31T01:55:33;9.50;99.90
19180;DHT22;9722;48.754;8.868;2022-10-31T01:58:57;9.50;99.90
19180;DHT22;9722;48.754;8.868;2022-10-31T02:02:19;9.40;99.90
19180;DHT22;9722;48.754;8.868;2022-10-31T02:05:41;9.40;99.90
19180;DHT22;9722;48.754;8.868;2022-10-31T02:09:04;9.40;99.90
19180;DHT22;9722;48.754;8.868;2022-10-31T02:12:25;9.40;99.90
19180;DHT22;9722;48.754;8.868;2022-10-31T02:15:51;9.40;99.90
19180;DHT22;9722;48.754;8.868;2022-10-31T02:19:18;9.30;99.90
19180;DHT22;9722;48.754;8.868;2022-10-31T02:26:58;9.30;99.90
19180;DHT22;9722;48.754;8.868;2022-10-31T02:30:22;9.30;99.90
19180;DHT22;9722;48.754;8.868;2022-10-31T02:33:51;9.30;99.90
19180;DHT22;9722;48.754;8.868;2022-10-31T02:37:15;9.30;99.90
19180;DHT22;9722;48.754;8.868;2022-10-31T02:40:51;9.30;99.90
19180;DHT22;9722;48.754;8.868;2022-10-31T02:44:44;9.30;99.90
19180;DHT22;9722;48.754;8.868;2022-10-31T02:48:15;9.30;99.90
19180;DHT22;9722;48.754;8.868;2022-10-31T02:51:37;9.20;99.90
19180;DHT22;9722;48.754;8.868;2022-10-31T02:55:08;9.30;99.90
19180;DHT22;9722;48.754;8.868;2022-10-31T02:58:33;9.30;99.90
19180;DHT22;9722;48.754;8.868;2022-10-31T03:02:17;9.30;99.90
19180;DHT22;9722;48.754;8.868;2022-10-31T03:09:25;9.20;99.90
19180;DHT22;9722;48.754;8.868;2022-10-31T03:20:00;9.20;99.90
19180;DHT22;9722;48.754;8.868;2022-10-31T03:23:24;9.10;99.90
19180;DHT22;9722;48.754;8.868;2022-10-31T03:26:49;9.10;99.90
19180;DHT22;9722;48.754;8.868;2022-10-31T03:30:11;9.10;99.90
19180;DHT22;9722;48.754;8.868;2022-10-31T03:33:35;9.10;99.90
19180;DHT22;9722;48.754;8.868;2022-10-31T03:37:00;9.10;99.90
19180;DHT22;9722;48.754;8.868;2022-10-31T03:40:25;9.10;99.90
19180;DHT22;9722;48.754;8.868;2022-10-31T03:43:54;9.10;99.90
19180;DHT22;9722;48.754;8.868;2022-10-31T03:47:16;9.10;99.90
19180;DHT22;9722;48.754;8.868;2022-10-31T03:50:44;9.00;99.90
19180;DHT22;9722;48.754;8.868;2022-10-31T03:54:18;9.10;99.90
19180;DHT22;9722;48.754;8.868;2022-10-31T03:57:55;9.10;99.90
19180;DHT22;9722;48.754;8.868;2022-10-31T04:01:18;9.10;99.90
19180;DHT22;9722;48.754;8.868;2022-10-31T04:04:40;9.10;99.90
19180;DHT22;9722;48.754;8.868;2022-10-31T04:08:04;9.00;99.90
19180;DHT22;9722;48.754;8.868;2022-10-31T04:11:31;9.00;99.90
19180;DHT22;9722;48.754;8.868;2022-10-31T04:14:52;9.00;99.90
19180;DHT22;9722;48.754;8.868;2022-10-31T04:18:14;9.00;99.90
19180;DHT22;9722;48.754;8.868;2022-10-31T04:21:35;8.90;99.90
19180;DHT22;9722;48.754;8.868;2022-10-31T04:24:56;8.90;99.90
19180;DHT22;9722;48.754;8.868;2022-10-31T04:28:16;8.90;99.90
19180;DHT22;9722;48.754;8.868;2022-10-31T04:31:36;8.90;99.90
19180;DHT22;9722;48.754;8.868;2022-10-31T04:34:57;8.90;99.90
19180;DHT22;9722;48.754;8.868;2022-10-31T04:38:18;8.90;99.90
19180;DHT22;9722;48.754;8.868;2022-10-31T04:41:38;8.80;99.90
19180;DHT22;9722;48.754;8.868;2022-10-31T04:44:58;8.90;99.90
19180;DHT22;9722;48.754;8.868;2022-10-31T04:48:19;8.90;99.90
19180;DHT22;9722;48.754;8.868;2022-10-31T04:51:40;8.90;99.90
19180;DHT22;9722;48.754;8.868;2022-10-31T04:55:00;8.80;99.90
19180;DHT22;9722;48.754;8.868;2022-10-31T04:58:20;8.80;99.90
19180;DHT22;9722;48.754;8.868;2022-10-31T05:01:41;8.80;99.90
19180;DHT22;9722;48.754;8.868;2022-10-31T05:05:01;8.70;99.90
19180;DHT22;9722;48.754;8.868;2022-10-31T05:08:24;8.70;99.90
19180;DHT22;9722;48.754;8.868;2022-10-31T05:11:44;8.70;99.90
19180;DHT22;9722;48.754;8.868;2022-10-31T05:15:05;8.70;99.90
19180;DHT22;9722;48.754;8.868;2022-10-31T05:18:26;8.60;99.90
19180;DHT22;9722;48.754;8.868;2022-10-31T05:21:46;8.60;99.90
19180;DHT22;9722;48.754;8.868;2022-10-31T05:25:07;8.60;99.90
19180;DHT22;9722;48.754;8.868;2022-10-31T05:28:28;8.50;99.90
19180;DHT22;9722;48.754;8.868;2022-10-31T05:31:48;8.50;99.90
19180;DHT22;9722;48.754;8.868;2022-10-31T05:35:24;8.50;99.90
19180;DHT22;9722;48.754;8.868;2022-10-31T05:38:45;8.50;99.90
19180;DHT22;9722;48.754;8.868;2022-10-31T05:42:05;8.50;99.90
19180;DHT22;9722;48.754;8.868;2022-10-31T05:45:26;8.40;99.90
19180;DHT22;9722;48.754;8.868;2022-10-31T05:48:46;8.40;99.90
19180;DHT22;9722;48.754;8.868;2022-10-31T05:52:07;8.40;99.90
19180;DHT22;9722;48.754;8.868;2022-10-31T05:55:29;8.30;99.90
19180;DHT22;9722;48.754;8.868;2022-10-31T05:58:49;8.30;99.90
19180;DHT22;9722;48.754;8.868;2022-10-31T06:02:10;8.30;99.90
19180;DHT22;9722;48.754;8.868;2022-10-31T06:05:31;8.20;99.90
19180;DHT22;9722;48.754;8.868;2022-10-31T06:08:51;8.20;99.90
19180;DHT22;9722;48.754;8.868;2022-10-31T06:12:12;8.20;99.90
19180;DHT22;9722;48.754;8.868;2022-10-31T06:15:32;8.20;99.90
19180;DHT22;9722;48.754;8.868;2022-10-31T06:18:53;8.20;99.90
19180;DHT22;9722;48.754;8.868;2022-10-31T06:22:13;8.20;99.90
19180;DHT22;9722;48.754;8.868;2022-10-31T06:25:35;8.30;99.90
19180;DHT22;9722;48.754;8.868;2022-10-31T06:28:55;8.20;99.90
19180;DHT22;9722;48.754;8.868;2022-10-31T06:32:16;8.30;99.90
19180;DHT22;9722;48.754;8.868;2022-10-31T06:35:37;8.40;99.90
19180;DHT22;9722;48.754;8.868;2022-10-31T06:38:57;8.40;99.90
19180;DHT22;9722;48.754;8.868;2022-10-31T06:42:18;8.50;99.90
19180;DHT22;9722;48.754;8.868;2022-10-31T06:45:38;8.60;99.90
19180;DHT22;9722;48.754;8.868;2022-10-31T06:48:59;8.60;99.90
19180;DHT22;9722;48.754;8.868;2022-10-31T06:52:19;8.80;99.90
19180;DHT22;9722;48.754;8.868;2022-10-31T06:55:40;9.00;99.90
19180;DHT22;9722;48.754;8.868;2022-10-31T06:59:01;9.50;99.90
19180;DHT22;9722;48.754;8.868;2022-10-31T07:02:21;9.80;99.90
19180;DHT22;9722;48.754;8.868;2022-10-31T07:05:42;10.20;99.90
19180;DHT22;9722;48.754;8.868;2022-10-31T07:09:03;10.50;99.90
19180;DHT22;9722;48.754;8.868;2022-10-31T07:12:24;10.70;99.90
19180;DHT22;9722;48.754;8.868;2022-10-31T07:15:44;10.80;99.90
19180;DHT22;9722;48.754;8.868;2022-10-31T07:19:05;11.10;99.90
19180;DHT22;9722;48.754;8.868;2022-10-31T07:22:33;11.30;99.90
19180;DHT22;9722;48.754;8.868;2022-10-31T07:25:57;11.60;99.90
19180;DHT22;9722;48.754;8.868;2022-10-31T07:29:18;11.90;99.40
19180;DHT22;9722;48.754;8.868;2022-10-31T07:32:44;12.20;98.50
19180;DHT22;9722;48.754;8.868;2022-10-31T07:36:05;12.40;97.90
19180;DHT22;9722;48.754;8.868;2022-10-31T07:39:25;12.50;96.90
19180;DHT22;9722;48.754;8.868;2022-10-31T07:42:48;12.80;96.30
19180;DHT22;9722;48.754;8.868;2022-10-31T07:46:09;13.10;95.50
19180;DHT22;9722;48.754;8.868;2022-10-31T07:49:31;13.40;94.80
19180;DHT22;9722;48.754;8.868;2022-10-31T07:53:06;13.70;93.80
19180;DHT22;9722;48.754;8.868;2022-10-31T07:56:27;13.90;92.90
19180;DHT22;9722;48.754;8.868;2022-10-31T07:59:47;14.20;92.30
19180;DHT22;9722;48.754;8.868;2022-10-31T08:03:10;14.50;91.60
19180;DHT22;9722;48.754;8.868;2022-10-31T08:06:31;14.70;91.10
19180;DHT22;9722;48.754;8.868;2022-10-31T08:09:52;15.10;90.60
19180;DHT22;9722;48.754;8.868;2022-10-31T08:13:13;15.40;89.60
19180;DHT22;9722;48.754;8.868;2022-10-31T08:16:34;15.70;87.90
19180;DHT22;9722;48.754;8.868;2022-10-31T08:19:54;16.20;86.20
19180;DHT22;9722;48.754;8.868;2022-10-31T08:23:15;16.40;83.60
19180;DHT22;9722;48.754;8.868;2022-10-31T08:26:36;16.60;82.10
19180;DHT22;9722;48.754;8.868;2022-10-31T08:29:57;16.60;81.20
19180;DHT22;9722;48.754;8.868;2022-10-31T08:33:18;16.70;80.40
19180;DHT22;9722;48.754;8.868;2022-10-31T08:36:39;16.80;79.70
19180;DHT22;9722;48.754;8.868;2022-10-31T08:40:00;16.90;79.10
19180;DHT22;9722;48.754;8.868;2022-10-31T08:43:20;17.20;78.20
19180;DHT22;9722;48.754;8.868;2022-10-31T08:46:41;17.60;77.20
19180;DHT22;9722;48.754;8.868;2022-10-31T08:50:01;18.10;75.80
19180;DHT22;9722;48.754;8.868;2022-10-31T08:53:22;18.50;74.10
19180;DHT22;9722;48.754;8.868;2022-10-31T08:56:42;18.70;72.80
19180;DHT22;9722;48.754;8.868;2022-10-31T09:00:03;19.10;71.90
19180;DHT22;9722;48.754;8.868;2022-10-31T09:03:27;19.40;70.40
19180;DHT22;9722;48.754;8.868;2022-10-31T09:06:48;19.80;68.80
19180;DHT22;9722;48.754;8.868;2022-10-31T09:10:09;20.30;67.30
19180;DHT22;9722;48.754;8.868;2022-10-31T09:13:29;20.70;65.80
19180;DHT22;9722;48.754;8.868;2022-10-31T09:16:51;21.00;63.90
19180;DHT22;9722;48.754;8.868;2022-10-31T09:20:11;21.10;61.90
19180;DHT22;9722;48.754;8.868;2022-10-31T09:23:32;20.90;61.30
19180;DHT22;9722;48.754;8.868;2022-10-31T09:26:53;20.80;61.20
19180;DHT22;9722;48.754;8.868;2022-10-31T09:30:13;20.70;61.90
19180;DHT22;9722;48.754;8.868;2022-10-31T09:33:34;21.00;61.70
19180;DHT22;9722;48.754;8.868;2022-10-31T09:36:54;21.30;61.30
19180;DHT22;9722;48.754;8.868;2022-10-31T09:40:15;21.30;60.60
19180;DHT22;9722;48.754;8.868;2022-10-31T09:44:07;21.30;60.70
19180;DHT22;9722;48.754;8.868;2022-10-31T09:51:08;20.80;61.50
19180;DHT22;9722;48.754;8.868;2022-10-31T09:54:54;20.70;61.90
19180;DHT22;9722;48.754;8.868;2022-10-31T09:58:22;20.80;62.70
19180;DHT22;9722;48.754;8.868;2022-10-31T10:01:56;21.30;63.40
19180;DHT22;9722;48.754;8.868;2022-10-31T10:05:32;22.00;62.70
19180;DHT22;9722;48.754;8.868;2022-10-31T10:08:55;22.80;61.40
19180;DHT22;9722;48.754;8.868;2022-10-31T10:15:58;23.90;59.00
19180;DHT22;9722;48.754;8.868;2022-10-31T10:26:37;24.40;57.70
19180;DHT22;9722;48.754;8.868;2022-10-31T10:30:04;24.70;57.10
19180;DHT22;9722;48.754;8.868;2022-10-31T10:33:28;25.10;56.80
19180;DHT22;9722;48.754;8.868;2022-10-31T10:37:01;25.30;56.10
19180;DHT22;9722;48.754;8.868;2022-10-31T10:40:24;25.20;55.80
19180;DHT22;9722;48.754;8.868;2022-10-31T10:43:49;25.20;55.70
19180;DHT22;9722;48.754;8.868;2022-10-31T10:47:10;25.20;55.70
19180;DHT22;9722;48.754;8.868;2022-10-31T10:50:51;25.30;55.70
19180;DHT22;9722;48.754;8.868;2022-10-31T10:57:57;25.50;55.10
19180;DHT22;9722;48.754;8.868;2022-10-31T11:01:19;25.60;54.90
19180;DHT22;9722;48.754;8.868;2022-10-31T11:04:39;25.60;55.20
19180;DHT22;9722;48.754;8.868;2022-10-31T11:08:01;25.50;55.00
19180;DHT22;9722;48.754;8.868;2022-10-31T11:11:32;25.40;55.20
19180;DHT22;9722;48.754;8.868;2022-10-31T11:14:55;25.40;54.70
19180;DHT22;9722;48.754;8.868;2022-10-31T11:18:22;25.30;55.00
19180;DHT22;9722;48.754;8.868;2022-10-31T11:21:45;25.10;55.10
19180;DHT22;9722;48.754;8.868;2022-10-31T11:25:24;24.90;55.50
19180;DHT22;9722;48.754;8.868;2022-10-31T11:28:56;24.70;55.80
19180;DHT22;9722;48.754;8.868;2022-10-31T11:32:24;24.50;56.20
19180;DHT22;9722;48.754;8.868;2022-10-31T11:35:47;24.50;56.60
19180;DHT22;9722;48.754;8.868;2022-10-31T11:39:17;24.40;56.50
19180;DHT22;9722;48.754;8.868;2022-10-31T11:42:40;24.30;56.50
19180;DHT22;9722;48.754;8.868;2022-10-31T11:46:14;24.10;56.50
19180;DHT22;9722;48.754;8.868;2022-10-31T11:49:38;24.00;57.50
19180;DHT22;9722;48.754;8.868;2022-10-31T11:53:00;23.90;57.10
19180;DHT22;9722;48.754;8.868;2022-10-31T11:56:21;23.90;57.00
19180;DHT22;9722;48.754;8.868;2022-10-31T11:59:51;23.80;56.60
19180;DHT22;9722;48.754;8.868;2022-10-31T12:06:46;24.10;56.80
19180;DHT22;9722;48.754;8.868;2022-10-31T12:10:11;24.40;56.40
19180;DHT22;9722;48.754;8.868;2022-10-31T12:13:41;24.80;56.10
19180;DHT22;9722;48.754;8.868;2022-10-31T12:17:16;25.00;55.40
19180;DHT22;9722;48.754;8.868;2022-10-31T12:21:20;25.10;55.60
19180;DHT22;9722;48.754;8.868;2022-10-31T12:28:50;24.90;56.10
19180;DHT22;9722;48.754;8.868;2022-10-31T12:32:34;24.50;56.50
19180;DHT22;9722;48.754;8.868;2022-10-31T12:40:16;23.50;57.60
19180;DHT22;9722;48.754;8.868;2022-10-31T12:47:40;22.70;58.30
19180;DHT22;9722;48.754;8.868;2022-10-31T12:52:00;22.50;58.70
19180;DHT22;9722;48.754;8.868;2022-10-31T12:55:20;22.30;59.90
19180;DHT22;9722;48.754;8.868;2022-10-31T12:58:52;22.10;60.60
19180;DHT22;9722;48.754;8.868;2022-10-31T13:02:21;21.90;60.60
19180;DHT22;9722;48.754;8.868;2022-10-31T13:05:46;21.70;61.10
19180;DHT22;9722;48.754;8.868;2022-10-31T13:09:18;21.60;61.60
19180;DHT22;9722;48.754;8.868;2022-10-31T13:12:40;21.50;61.10
19180;DHT22;9722;48.754;8.868;2022-10-31T13:16:18;21.60;60.80
19180;DHT22;9722;48.754;8.868;2022-10-31T13:19:42;21.90;60.50
19180;DHT22;9722;48.754;8.868;2022-10-31T13:23:29;22.40;59.80
19180;DHT22;9722;48.754;8.868;2022-10-31T13:26:54;23.70;58.40
19180;DHT22;9722;48.754;8.868;2022-10-31T13:30:19;25.30;56.20
19180;DHT22;9722;48.754;8.868;2022-10-31T13:33:46;26.70;53.70
19180;DHT22;9722;48.754;8.868;2022-10-31T13:37:25;27.60;51.70
19180;DHT22;9722;48.754;8.868;2022-10-31T13:40:59;28.60;50.00
19180;DHT22;9722;48.754;8.868;2022-10-31T13:44:26;29.50;48.00
19180;DHT22;9722;48.754;8.868;2022-10-31T13:51:31;29.20;47.80
19180;DHT22;9722;48.754;8.868;2022-10-31T13:54:54;28.50;48.60
19180;DHT22;9722;48.754;8.868;2022-10-31T13:58:28;27.60;49.40
19180;DHT22;9722;48.754;8.868;2022-10-31T14:01:53;26.80;50.80
19180;DHT22;9722;48.754;8.868;2022-10-31T14:05:26;26.20;51.30
19180;DHT22;9722;48.754;8.868;2022-10-31T14:08:50;26.60;51.20
19180;DHT22;9722;48.754;8.868;2022-10-31T14:12:39;27.40;50.20
19180;DHT22;9722;48.754;8.868;2022-10-31T14:16:06;27.50;49.50
19180;DHT22;9722;48.754;8.868;2022-10-31T14:19:27;27.60;50.00
19180;DHT22;9722;48.754;8.868;2022-10-31T14:22:48;27.90;49.60
19180;DHT22;9722;48.754;8.868;2022-10-31T14:29:37;29.20;47.30
19180;DHT22;9722;48.754;8.868;2022-10-31T14:33:01;29.50;46.30
19180;DHT22;9722;48.754;8.868;2022-10-31T14:36:32;29.10;46.50
19180;DHT22;9722;48.754;8.868;2022-10-31T14:53:56;27.10;48.70
19180;DHT22;9722;48.754;8.868;2022-10-31T14:57:24;26.20;50.20
19180;DHT22;9722;48.754;8.868;2022-10-31T15:00:54;25.50;52.00
19180;DHT22;9722;48.754;8.868;2022-10-31T15:04:22;24.70;53.70
19180;DHT22;9722;48.754;8.868;2022-10-31T15:07:54;24.00;55.20
19180;DHT22;9722;48.754;8.868;2022-10-31T15:11:21;23.30;56.40
19180;DHT22;9722;48.754;8.868;2022-10-31T15:14:42;22.70;57.80
19180;DHT22;9722;48.754;8.868;2022-10-31T15:18:05;22.30;58.70
19180;DHT22;9722;48.754;8.868;2022-10-31T15:21:27;21.90;59.50
19180;DHT22;9722;48.754;8.868;2022-10-31T15:24:51;21.50;60.40
19180;DHT22;9722;48.754;8.868;2022-10-31T15:28:22;21.20;61.70
19180;DHT22;9722;48.754;8.868;2022-10-31T15:31:58;20.90;63.10
19180;DHT22;9722;48.754;8.868;2022-10-31T15:35:22;20.60;64.60
19180;DHT22;9722;48.754;8.868;2022-10-31T15:38:43;20.30;65.60
19180;DHT22;9722;48.754;8.868;2022-10-31T15:42:03;20.00;66.60
19180;DHT22;9722;48.754;8.868;2022-10-31T15:45:26;19.80;67.30
19180;DHT22;9722;48.754;8.868;2022-10-31T15:48:47;19.60;68.20
19180;DHT22;9722;48.754;8.868;2022-10-31T15:52:15;19.40;68.80
19180;DHT22;9722;48.754;8.868;2022-10-31T15:55:48;19.20;69.70
19180;DHT22;9722;48.754;8.868;2022-10-31T15:59:19;19.00;70.50
19180;DHT22;9722;48.754;8.868;2022-10-31T16:02:40;18.80;71.50
19180;DHT22;9722;48.754;8.868;2022-10-31T16:06:03;18.50;72.10
19180;DHT22;9722;48.754;8.868;2022-10-31T16:09:24;18.30;73.30
19180;DHT22;9722;48.754;8.868;2022-10-31T16:12:46;18.00;74.50
19180;DHT22;9722;48.754;8.868;2022-10-31T16:16:13;17.80;75.60
19180;DHT22;9722;48.754;8.868;2022-10-31T16:19:46;17.50;76.50
19180;DHT22;9722;48.754;8.868;2022-10-31T16:23:15;17.30;77.50
19180;DHT22;9722;48.754;8.868;2022-10-31T16:26:36;17.10;78.60
19180;DHT22;9722;48.754;8.868;2022-10-31T16:29:58;16.90;79.80
19180;DHT22;9722;48.754;8.868;2022-10-31T16:33:32;16.70;80.70
19180;DHT22;9722;48.754;8.868;2022-10-31T16:36:55;16.50;81.70
19180;DHT22;9722;48.754;8.868;2022-10-31T16:40:16;16.30;82.50
19180;DHT22;9722;48.754;8.868;2022-10-31T16:43:37;16.10;83.60
19180;DHT22;9722;48.754;8.868;2022-10-31T16:47:09;15.90;84.60
19180;DHT22;9722;48.754;8.868;2022-10-31T16:50:30;15.70;85.90
19180;DHT22;9722;48.754;8.868;2022-10-31T16:53:52;15.50;87.20
19180;DHT22;9722;48.754;8.868;2022-10-31T16:57:23;15.40;88.60
19180;DHT22;9722;48.754;8.868;2022-10-31T17:00:45;15.20;90.00
19180;DHT22;9722;48.754;8.868;2022-10-31T17:04:07;15.10;90.70
19180;DHT22;9722;48.754;8.868;2022-10-31T17:07:28;15.00;91.20
19180;DHT22;9722;48.754;8.868;2022-10-31T17:10:51;15.00;91.70
19180;DHT22;9722;48.754;8.868;2022-10-31T17:14:12;14.90;92.10
19180;DHT22;9722;48.754;8.868;2022-10-31T17:17:32;14.80;92.40
19180;DHT22;9722;48.754;8.868;2022-10-31T17:20:58;14.70;92.80
19180;DHT22;9722;48.754;8.868;2022-10-31T17:24:19;14.60;93.20
19180;DHT22;9722;48.754;8.868;2022-10-31T17:27:39;14.50;93.60
19180;DHT22;9722;48.754;8.868;2022-10-31T17:31:00;14.50;94.10
19180;DHT22;9722;48.754;8.868;2022-10-31T17:34:21;14.40;94.50
19180;DHT22;9722;48.754;8.868;2022-10-31T17:37:42;14.30;95.00
19180;DHT22;9722;48.754;8.868;2022-10-31T17:41:07;14.30;95.60
19180;DHT22;9722;48.754;8.868;2022-10-31T17:44:27;14.30;96.00
19180;DHT22;9722;48.754;8.868;2022-10-31T17:47:49;14.20;96.30
19180;DHT22;9722;48.754;8.868;2022-10-31T17:51:10;14.10;96.60
19180;DHT22;9722;48.754;8.868;2022-10-31T17:54:31;14.00;97.00
19180;DHT22;9722;48.754;8.868;2022-10-31T17:57:52;13.90;97.50
19180;DHT22;9722;48.754;8.868;2022-10-31T18:01:14;13.70;97.90
19180;DHT22;9722;48.754;8.868;2022-10-31T18:04:35;13.60;98.40
19180;DHT22;9722;48.754;8.868;2022-10-31T18:07:56;13.50;98.80
19180;DHT22;9722;48.754;8.868;2022-10-31T18:11:19;13.40;99.10
19180;DHT22;9722;48.754;8.868;2022-10-31T18:14:41;13.30;99.50
19180;DHT22;9722;48.754;8.868;2022-10-31T18:18:01;13.30;99.90
19180;DHT22;9722;48.754;8.868;2022-10-31T18:21:23;13.20;99.90
19180;DHT22;9722;48.754;8.868;2022-10-31T18:24:43;13.20;99.90
19180;DHT22;9722;48.754;8.868;2022-10-31T18:28:07;13.30;99.90
19180;DHT22;9722;48.754;8.868;2022-10-31T18:31:28;13.20;99.90
19180;DHT22;9722;48.754;8.868;2022-10-31T18:34:48;13.20;99.90
19180;DHT22;9722;48.754;8.868;2022-10-31T18:38:09;13.20;99.90
19180;DHT22;9722;48.754;8.868;2022-10-31T18:41:29;13.10;99.90
19180;DHT22;9722;48.754;8.868;2022-10-31T18:44:50;13.10;99.90
19180;DHT22;9722;48.754;8.868;2022-10-31T18:48:12;13.10;99.90
19180;DHT22;9722;48.754;8.868;2022-10-31T18:51:33;13.00;99.90
19180;DHT22;9722;48.754;8.868;2022-10-31T18:54:54;12.90;99.90
19180;DHT22;9722;48.754;8.868;2022-10-31T18:58:15;12.80;99.90
19180;DHT22;9722;48.754;8.868;2022-10-31T19:01:35;12.80;99.90
19180;DHT22;9722;48.754;8.868;2022-10-31T19:04:56;12.90;99.90
19180;DHT22;9722;48.754;8.868;2022-10-31T19:08:16;13.10;99.90
19180;DHT22;9722;48.754;8.868;2022-10-31T19:11:37;13.20;99.90
19180;DHT22;9722;48.754;8.868;2022-10-31T19:14:58;13.30;99.90
19180;DHT22;9722;48.754;8.868;2022-10-31T19:18:19;13.50;99.90
19180;DHT22;9722;48.754;8.868;2022-10-31T19:21:39;13.60;99.90
19180;DHT22;9722;48.754;8.868;2022-10-31T19:25:00;13.70;99.90
19180;DHT22;9722;48.754;8.868;2022-10-31T19:28:20;13.60;99.90
19180;DHT22;9722;48.754;8.868;2022-10-31T19:31:41;13.60;99.90
19180;DHT22;9722;48.754;8.868;2022-10-31T19:35:02;13.50;99.90
19180;DHT22;9722;48.754;8.868;2022-10-31T19:38:27;13.50;99.90
19180;DHT22;9722;48.754;8.868;2022-10-31T19:41:48;13.40;99.90
19180;DHT22;9722;48.754;8.868;2022-10-31T19:45:09;13.40;99.90
19180;DHT22;9722;48.754;8.868;2022-10-31T19:48:30;13.30;99.90
19180;DHT22;9722;48.754;8.868;2022-10-31T19:51:51;13.30;99.90
19180;DHT22;9722;48.754;8.868;2022-10-31T19:55:12;13.20;99.90
19180;DHT22;9722;48.754;8.868;2022-10-31T19:58:32;13.10;99.90
19180;DHT22;9722;48.754;8.868;2022-10-31T20:01:53;13.10;99.90
19180;DHT22;9722;48.754;8.868;2022-10-31T20:05:13;13.10;99.90
19180;DHT22;9722;48.754;8.868;2022-10-31T20:08:34;13.10;99.90
19180;DHT22;9722;48.754;8.868;2022-10-31T20:11:56;13.10;99.90
19180;DHT22;9722;48.754;8.868;2022-10-31T20:15:16;13.10;99.90
19180;DHT22;9722;48.754;8.868;2022-10-31T20:18:38;13.00;99.90
19180;DHT22;9722;48.754;8.868;2022-10-31T20:21:59;12.90;99.90
19180;DHT22;9722;48.754;8.868;2022-10-31T20:25:19;12.90;99.90
19180;DHT22;9722;48.754;8.868;2022-10-31T20:28:40;12.90;99.90
19180;DHT22;9722;48.754;8.868;2022-10-31T20:32:00;12.80;99.90
19180;DHT22;9722;48.754;8.868;2022-10-31T20:35:21;12.80;99.90
19180;DHT22;9722;48.754;8.868;2022-10-31T20:38:41;12.80;99.90
19180;DHT22;9722;48.754;8.868;2022-10-31T20:42:05;12.70;99.90
19180;DHT22;9722;48.754;8.868;2022-10-31T20:45:26;12.70;99.90
19180;DHT22;9722;48.754;8.868;2022-10-31T20:48:47;12.60;99.90
19180;DHT22;9722;48.754;8.868;2022-10-31T20:52:07;12.50;99.90
19180;DHT22;9722;48.754;8.868;2022-10-31T20:55:28;12.40;99.90
19180;DHT22;9722;48.754;8.868;2022-10-31T20:58:49;12.40;99.90
19180;DHT22;9722;48.754;8.868;2022-10-31T21:02:10;12.40;99.90
19180;DHT22;9722;48.754;8.868;2022-10-31T21:05:30;12.40;99.90
19180;DHT22;9722;48.754;8.868;2022-10-31T21:08:51;12.40;99.90
19180;DHT22;9722;48.754;8.868;2022-10-31T21:12:13;12.30;99.90
19180;DHT22;9722;48.754;8.868;2022-10-31T21:15:33;12.30;99.90
19180;DHT22;9722;48.754;8.868;2022-10-31T21:18:54;12.30;99.90
19180;DHT22;9722;48.754;8.868;2022-10-31T21:22:14;12.30;99.90
19180;DHT22;9722;48.754;8.868;2022-10-31T21:25:39;12.30;99.90
19180;DHT22;9722;48.754;8.868;2022-10-31T21:29:01;12.30;99.90
19180;DHT22;9722;48.754;8.868;2022-10-31T21:32:21;12.20;99.90
19180;DHT22;9722;48.754;8.868;2022-10-31T21:35:49;12.20;99.90
19180;DHT22;9722;48.754;8.868;2022-10-31T21:39:11;12.30;99.90
19180;DHT22;9722;48.754;8.868;2022-10-31T21:42:31;12.20;99.90
19180;DHT22;9722;48.754;8.868;2022-10-31T21:45:52;12.20;99.90
19180;DHT22;9722;48.754;8.868;2022-10-31T21:49:12;12.20;99.90
19180;DHT22;9722;48.754;8.868;2022-10-31T21:52:33;12.20;99.90
19180;DHT22;9722;48.754;8.868;2022-10-31T21:55:54;12.10;99.90
19180;DHT22;9722;48.754;8.868;2022-10-31T21:59:14;12.10;99.90
19180;DHT22;9722;48.754;8.868;2022-10-31T22:02:35;12.00;99.90
19180;DHT22;9722;48.754;8.868;2022-10-31T22:06:01;12.00;99.90
19180;DHT22;9722;48.754;8.868;2022-10-31T22:09:22;12.00;99.90
19180;DHT22;9722;48.754;8.868;2022-10-31T22:12:43;12.00;99.90
19180;DHT22;9722;48.754;8.868;2022-10-31T22:16:08;11.90;99.90
19180;DHT22;9722;48.754;8.868;2022-10-31T22:19:29;11.90;99.90
19180;DHT22;9722;48.754;8.868;2022-10-31T22:22:50;11.80;99.90
19180;DHT22;9722;48.754;8.868;2022-10-31T22:26:12;11.80;99.90
19180;DHT22;9722;48.754;8.868;2022-10-31T22:29:33;11.70;99.90
19180;DHT22;9722;48.754;8.868;2022-10-31T22:32:54;11.70;99.90
19180;DHT22;9722;48.754;8.868;2022-10-31T22:36:17;11.70;99.90
19180;DHT22;9722;48.754;8.868;2022-10-31T22:39:38;11.70;99.90
19180;DHT22;9722;48.754;8.868;2022-10-31T22:42:59;11.70;99.90
19180;DHT22;9722;48.754;8.868;2022-10-31T22:46:23;11.70;99.90
19180;DHT22;9722;48.754;8.868;2022-10-31T22:49:43;11.60;99.90
19180;DHT22;9722;48.754;8.868;2022-10-31T22:53:04;11.60;99.90
19180;DHT22;9722;48.754;8.868;2022-10-31T22:56:30;11.60;99.90
19180;DHT22;9722;48.754;8.868;2022-10-31T22:59:51;11.60;99.90
19180;DHT22;9722;48.754;8.868;2022-10-31T23:03:11;11.60;99.90